sensor_id;sensor_type;location;lat;lon;timestamp;P1;durP1;ratioP1;P2;durP2;ratioP2
47103;SDS011;32853;52.164;5.400;2023-04-10T00:00:01;21.50;;;10.25;;
47103;SDS011;32853;52.164;5.400;2023-04-10T00:02:40;19.55;;;9.75;;
47103;SDS011;32853;52.164;5.400;2023-04-10T00:05:20;19.30;;;9.77;;
47103;SDS011;32853;52.164;5.400;2023-04-10T00:13:35;22.23;;;9.18;;
47103;SDS011;32853;52.164;5.400;2023-04-10T00:16:11;17.55;;;9.77;;
47103;SDS011;32853;52.164;5.400;2023-04-10T00:18:43;13.88;;;8.35;;
47103;SDS011;32853;52.164;5.400;2023-04-10T00:21:21;19.63;;;9.82;;
47103;SDS011;32853;52.164;5.400;2023-04-10T00:23:46;19.65;;;9.77;;
47103;SDS011;32853;52.164;5.400;2023-04-10T00:26:16;16.60;;;9.25;;
47103;SDS011;32853;52.164;5.400;2023-04-10T00:28:43;18.60;;;9.48;;
47103;SDS011;32853;52.164;5.400;2023-04-10T00:31:09;17.92;;;8.23;;
47103;SDS011;32853;52.164;5.400;2023-04-10T00:33:34;15.88;;;9.15;;
47103;SDS011;32853;52.164;5.400;2023-04-10T00:35:59;16.02;;;8.95;;
47103;SDS011;32853;52.164;5.400;2023-04-10T00:38:33;16.23;;;8.93;;
47103;SDS011;32853;52.164;5.400;2023-04-10T00:41:01;21.05;;;9.20;;
47103;SDS011;32853;52.164;5.400;2023-04-10T00:49:42;14.73;;;8.73;;
47103;SDS011;32853;52.164;5.400;2023-04-10T00:52:13;16.17;;;8.38;;
47103;SDS011;32853;52.164;5.400;2023-04-10T00:54:39;13.07;;;8.10;;
47103;SDS011;32853;52.164;5.400;2023-04-10T00:57:05;14.38;;;7.80;;
47103;SDS011;32853;52.164;5.400;2023-04-10T00:59:38;16.00;;;9.30;;
47103;SDS011;32853;52.164;5.400;2023-04-10T01:05:05;16.23;;;7.93;;
47103;SDS011;32853;52.164;5.400;2023-04-10T01:10:58;13.00;;;6.63;;
47103;SDS011;32853;52.164;5.400;2023-04-10T01:13:31;11.32;;;6.13;;
47103;SDS011;32853;52.164;5.400;2023-04-10T01:16:00;11.48;;;6.47;;
47103;SDS011;32853;52.164;5.400;2023-04-10T01:18:47;15.07;;;6.57;;
47103;SDS011;32853;52.164;5.400;2023-04-10T01:21:18;13.07;;;7.13;;
47103;SDS011;32853;52.164;5.400;2023-04-10T01:32:13;12.30;;;6.88;;
47103;SDS011;32853;52.164;5.400;2023-04-10T01:34:46;11.35;;;5.95;;
47103;SDS011;32853;52.164;5.400;2023-04-10T01:37:26;9.77;;;6.03;;
47103;SDS011;32853;52.164;5.400;2023-04-10T01:40:07;10.30;;;6.13;;
47103;SDS011;32853;52.164;5.400;2023-04-10T01:42:40;12.52;;;6.63;;
47103;SDS011;32853;52.164;5.400;2023-04-10T01:45:27;12.80;;;5.40;;
47103;SDS011;32853;52.164;5.400;2023-04-10T01:47:54;10.70;;;5.80;;
47103;SDS011;32853;52.164;5.400;2023-04-10T01:50:20;11.07;;;6.45;;
47103;SDS011;32853;52.164;5.400;2023-04-10T01:53:09;10.77;;;6.00;;
47103;SDS011;32853;52.164;5.400;2023-04-10T01:55:35;11.25;;;5.57;;
47103;SDS011;32853;52.164;5.400;2023-04-10T01:58:02;11.45;;;6.35;;
47103;SDS011;32853;52.164;5.400;2023-04-10T02:00:43;10.57;;;6.22;;
47103;SDS011;32853;52.164;5.400;2023-04-10T02:03:09;8.23;;;4.70;;
47103;SDS011;32853;52.164;5.400;2023-04-10T02:05:39;10.25;;;4.85;;
47103;SDS011;32853;52.164;5.400;2023-04-10T02:08:41;8.02;;;4.93;;
47103;SDS011;32853;52.164;5.400;2023-04-10T02:14:07;9.07;;;4.82;;
47103;SDS011;32853;52.164;5.400;2023-04-10T02:16:37;9.27;;;4.93;;
47103;SDS011;32853;52.164;5.400;2023-04-10T02:19:03;7.90;;;4.95;;
47103;SDS011;32853;52.164;5.400;2023-04-10T02:21:29;9.18;;;5.07;;
47103;SDS011;32853;52.164;5.400;2023-04-10T02:29:11;10.82;;;4.65;;
47103;SDS011;32853;52.164;5.400;2023-04-10T02:31:37;10.38;;;5.05;;
47103;SDS011;32853;52.164;5.400;2023-04-10T02:34:07;12.05;;;5.82;;
47103;SDS011;32853;52.164;5.400;2023-04-10T02:36:52;8.85;;;4.88;;
47103;SDS011;32853;52.164;5.400;2023-04-10T02:39:18;10.95;;;4.90;;
47103;SDS011;32853;52.164;5.400;2023-04-10T02:41:44;13.30;;;5.50;;
47103;SDS011;32853;52.164;5.400;2023-04-10T02:44:10;7.68;;;4.65;;
47103;SDS011;32853;52.164;5.400;2023-04-10T02:46:37;11.65;;;5.35;;
47103;SDS011;32853;52.164;5.400;2023-04-10T02:49:02;10.60;;;5.43;;
47103;SDS011;32853;52.164;5.400;2023-04-10T02:51:28;6.88;;;4.47;;
47103;SDS011;32853;52.164;5.400;2023-04-10T02:53:53;7.22;;;4.78;;
47103;SDS011;32853;52.164;5.400;2023-04-10T02:56:18;9.10;;;4.90;;
47103;SDS011;32853;52.164;5.400;2023-04-10T02:58:44;9.25;;;4.85;;
47103;SDS011;32853;52.164;5.400;2023-04-10T03:01:11;9.93;;;5.43;;
47103;SDS011;32853;52.164;5.400;2023-04-10T03:03:40;10.93;;;5.65;;
47103;SDS011;32853;52.164;5.400;2023-04-10T03:06:07;13.35;;;6.07;;
47103;SDS011;32853;52.164;5.400;2023-04-10T03:08:33;8.18;;;5.03;;
47103;SDS011;32853;52.164;5.400;2023-04-10T03:10:58;10.23;;;4.90;;
47103;SDS011;32853;52.164;5.400;2023-04-10T03:15:55;6.97;;;4.90;;
47103;SDS011;32853;52.164;5.400;2023-04-10T03:18:22;9.15;;;5.45;;
47103;SDS011;32853;52.164;5.400;2023-04-10T03:20:48;7.93;;;4.75;;
47103;SDS011;32853;52.164;5.400;2023-04-10T03:23:16;7.47;;;4.68;;
47103;SDS011;32853;52.164;5.400;2023-04-10T03:25:51;10.68;;;4.97;;
47103;SDS011;32853;52.164;5.400;2023-04-10T03:28:20;9.85;;;5.03;;
47103;SDS011;32853;52.164;5.400;2023-04-10T03:30:45;8.48;;;4.20;;
47103;SDS011;32853;52.164;5.400;2023-04-10T03:33:12;10.55;;;5.20;;
47103;SDS011;32853;52.164;5.400;2023-04-10T03:35:39;11.30;;;5.05;;
47103;SDS011;32853;52.164;5.400;2023-04-10T03:38:09;8.02;;;4.47;;
47103;SDS011;32853;52.164;5.400;2023-04-10T03:40:34;7.35;;;4.85;;
47103;SDS011;32853;52.164;5.400;2023-04-10T03:43:00;9.80;;;4.60;;
47103;SDS011;32853;52.164;5.400;2023-04-10T03:45:25;9.38;;;5.68;;
47103;SDS011;32853;52.164;5.400;2023-04-10T03:47:51;9.45;;;4.82;;
47103;SDS011;32853;52.164;5.400;2023-04-10T03:50:19;10.30;;;5.03;;
47103;SDS011;32853;52.164;5.400;2023-04-10T03:52:48;9.35;;;4.68;;
47103;SDS011;32853;52.164;5.400;2023-04-10T03:55:30;9.02;;;4.72;;
47103;SDS011;32853;52.164;5.400;2023-04-10T03:58:00;8.20;;;4.85;;
47103;SDS011;32853;52.164;5.400;2023-04-10T04:00:26;10.35;;;5.75;;
47103;SDS011;32853;52.164;5.400;2023-04-10T04:02:51;8.13;;;5.47;;
47103;SDS011;32853;52.164;5.400;2023-04-10T04:05:30;8.88;;;4.70;;
47103;SDS011;32853;52.164;5.400;2023-04-10T04:10:56;7.78;;;4.43;;
47103;SDS011;32853;52.164;5.400;2023-04-10T04:13:27;8.40;;;4.65;;
47103;SDS011;32853;52.164;5.400;2023-04-10T04:18:24;9.27;;;5.35;;
47103;SDS011;32853;52.164;5.400;2023-04-10T04:20:49;8.68;;;5.13;;
47103;SDS011;32853;52.164;5.400;2023-04-10T04:23:15;8.50;;;4.95;;
47103;SDS011;32853;52.164;5.400;2023-04-10T04:25:52;9.07;;;5.47;;
47103;SDS011;32853;52.164;5.400;2023-04-10T04:28:22;8.43;;;5.25;;
47103;SDS011;32853;52.164;5.400;2023-04-10T04:30:50;10.02;;;6.07;;
47103;SDS011;32853;52.164;5.400;2023-04-10T04:36:24;8.15;;;4.63;;
47103;SDS011;32853;52.164;5.400;2023-04-10T04:38:49;9.63;;;5.30;;
47103;SDS011;32853;52.164;5.400;2023-04-10T04:41:17;9.35;;;5.22;;
47103;SDS011;32853;52.164;5.400;2023-04-10T04:43:45;8.82;;;5.18;;
47103;SDS011;32853;52.164;5.400;2023-04-10T04:46:17;9.70;;;5.20;;
47103;SDS011;32853;52.164;5.400;2023-04-10T04:48:42;8.88;;;4.70;;
47103;SDS011;32853;52.164;5.400;2023-04-10T04:51:07;10.88;;;5.47;;
47103;SDS011;32853;52.164;5.400;2023-04-10T04:53:36;11.38;;;5.57;;
47103;SDS011;32853;52.164;5.400;2023-04-10T04:56:02;10.07;;;5.57;;
47103;SDS011;32853;52.164;5.400;2023-04-10T04:58:28;7.55;;;5.30;;
47103;SDS011;32853;52.164;5.400;2023-04-10T05:00:53;11.45;;;5.97;;
47103;SDS011;32853;52.164;5.400;2023-04-10T05:05:57;7.93;;;5.07;;
47103;SDS011;32853;52.164;5.400;2023-04-10T05:08:26;11.05;;;5.10;;
47103;SDS011;32853;52.164;5.400;2023-04-10T05:10:53;10.85;;;5.57;;
47103;SDS011;32853;52.164;5.400;2023-04-10T05:13:19;11.65;;;6.63;;
47103;SDS011;32853;52.164;5.400;2023-04-10T05:15:44;14.15;;;6.47;;
47103;SDS011;32853;52.164;5.400;2023-04-10T05:20:43;12.98;;;6.18;;
47103;SDS011;32853;52.164;5.400;2023-04-10T05:23:13;9.02;;;5.35;;
47103;SDS011;32853;52.164;5.400;2023-04-10T05:25:45;9.55;;;5.35;;
47103;SDS011;32853;52.164;5.400;2023-04-10T05:28:13;11.68;;;5.90;;
47103;SDS011;32853;52.164;5.400;2023-04-10T05:30:42;9.38;;;5.05;;
47103;SDS011;32853;52.164;5.400;2023-04-10T05:33:10;10.75;;;5.22;;
47103;SDS011;32853;52.164;5.400;2023-04-10T05:35:46;10.98;;;5.93;;
47103;SDS011;32853;52.164;5.400;2023-04-10T05:38:12;10.32;;;5.63;;
47103;SDS011;32853;52.164;5.400;2023-04-10T05:40:48;10.82;;;5.88;;
47103;SDS011;32853;52.164;5.400;2023-04-10T05:43:17;11.27;;;7.43;;
47103;SDS011;32853;52.164;5.400;2023-04-10T05:45:43;9.88;;;5.97;;
47103;SDS011;32853;52.164;5.400;2023-04-10T05:48:10;10.35;;;5.75;;
47103;SDS011;32853;52.164;5.400;2023-04-10T05:50:38;10.25;;;5.20;;
47103;SDS011;32853;52.164;5.400;2023-04-10T05:59:07;8.05;;;4.75;;
47103;SDS011;32853;52.164;5.400;2023-04-10T06:06:54;9.35;;;5.43;;
47103;SDS011;32853;52.164;5.400;2023-04-10T06:09:33;10.38;;;5.10;;
47103;SDS011;32853;52.164;5.400;2023-04-10T06:12:03;11.25;;;5.70;;
47103;SDS011;32853;52.164;5.400;2023-04-10T06:16:57;14.48;;;5.38;;
47103;SDS011;32853;52.164;5.400;2023-04-10T06:19:22;9.95;;;5.63;;
47103;SDS011;32853;52.164;5.400;2023-04-10T06:21:51;10.45;;;5.50;;
47103;SDS011;32853;52.164;5.400;2023-04-10T06:24:16;9.60;;;5.30;;
47103;SDS011;32853;52.164;5.400;2023-04-10T06:26:41;8.75;;;6.00;;
47103;SDS011;32853;52.164;5.400;2023-04-10T06:29:10;9.02;;;4.85;;
47103;SDS011;32853;52.164;5.400;2023-04-10T06:31:35;10.48;;;5.88;;
47103;SDS011;32853;52.164;5.400;2023-04-10T06:34:02;8.77;;;6.10;;
47103;SDS011;32853;52.164;5.400;2023-04-10T06:36:28;9.60;;;4.97;;
47103;SDS011;32853;52.164;5.400;2023-04-10T06:38:56;17.17;;;5.60;;
47103;SDS011;32853;52.164;5.400;2023-04-10T06:41:31;7.85;;;5.32;;
47103;SDS011;32853;52.164;5.400;2023-04-10T06:43:56;9.23;;;5.70;;
47103;SDS011;32853;52.164;5.400;2023-04-10T06:46:21;12.25;;;6.35;;
47103;SDS011;32853;52.164;5.400;2023-04-10T06:48:47;9.00;;;5.18;;
47103;SDS011;32853;52.164;5.400;2023-04-10T06:51:37;9.63;;;4.75;;
47103;SDS011;32853;52.164;5.400;2023-04-10T06:54:02;10.25;;;5.55;;
47103;SDS011;32853;52.164;5.400;2023-04-10T06:56:27;6.90;;;4.63;;
47103;SDS011;32853;52.164;5.400;2023-04-10T06:58:53;8.00;;;5.15;;
47103;SDS011;32853;52.164;5.400;2023-04-10T07:01:18;10.27;;;5.65;;
47103;SDS011;32853;52.164;5.400;2023-04-10T07:03:46;12.27;;;5.63;;
47103;SDS011;32853;52.164;5.400;2023-04-10T07:06:13;7.85;;;4.72;;
47103;SDS011;32853;52.164;5.400;2023-04-10T07:08:39;8.48;;;5.07;;
47103;SDS011;32853;52.164;5.400;2023-04-10T07:11:05;8.30;;;4.80;;
47103;SDS011;32853;52.164;5.400;2023-04-10T07:13:38;10.75;;;5.00;;
47103;SDS011;32853;52.164;5.400;2023-04-10T07:16:55;10.82;;;5.75;;
47103;SDS011;32853;52.164;5.400;2023-04-10T07:19:20;8.60;;;5.03;;
47103;SDS011;32853;52.164;5.400;2023-04-10T07:21:48;11.07;;;4.80;;
47103;SDS011;32853;52.164;5.400;2023-04-10T07:24:16;8.07;;;5.28;;
47103;SDS011;32853;52.164;5.400;2023-04-10T07:26:43;8.45;;;4.88;;
47103;SDS011;32853;52.164;5.400;2023-04-10T07:29:09;10.98;;;5.07;;
47103;SDS011;32853;52.164;5.400;2023-04-10T07:31:35;8.20;;;4.82;;
47103;SDS011;32853;52.164;5.400;2023-04-10T07:34:35;9.70;;;5.35;;
47103;SDS011;32853;52.164;5.400;2023-04-10T07:37:04;7.97;;;4.45;;
47103;SDS011;32853;52.164;5.400;2023-04-10T07:39:31;7.78;;;4.60;;
47103;SDS011;32853;52.164;5.400;2023-04-10T07:41:56;8.20;;;4.70;;
47103;SDS011;32853;52.164;5.400;2023-04-10T07:47:15;6.80;;;4.30;;
47103;SDS011;32853;52.164;5.400;2023-04-10T07:49:40;7.53;;;4.40;;
47103;SDS011;32853;52.164;5.400;2023-04-10T07:52:06;12.07;;;5.32;;
47103;SDS011;32853;52.164;5.400;2023-04-10T07:54:31;9.10;;;5.18;;
47103;SDS011;32853;52.164;5.400;2023-04-10T07:57:01;8.20;;;5.30;;
47103;SDS011;32853;52.164;5.400;2023-04-10T07:59:27;9.55;;;5.05;;
47103;SDS011;32853;52.164;5.400;2023-04-10T08:01:53;8.40;;;5.47;;
47103;SDS011;32853;52.164;5.400;2023-04-10T08:04:19;10.60;;;5.03;;
47103;SDS011;32853;52.164;5.400;2023-04-10T08:06:45;8.98;;;5.30;;
47103;SDS011;32853;52.164;5.400;2023-04-10T08:09:17;8.10;;;4.72;;
47103;SDS011;32853;52.164;5.400;2023-04-10T08:11:43;9.73;;;4.15;;
47103;SDS011;32853;52.164;5.400;2023-04-10T08:14:09;10.38;;;4.93;;
47103;SDS011;32853;52.164;5.400;2023-04-10T08:16:34;8.45;;;4.82;;
47103;SDS011;32853;52.164;5.400;2023-04-10T08:19:03;11.45;;;5.57;;
47103;SDS011;32853;52.164;5.400;2023-04-10T08:21:30;7.93;;;4.72;;
47103;SDS011;32853;52.164;5.400;2023-04-10T08:24:05;8.57;;;4.97;;
47103;SDS011;32853;52.164;5.400;2023-04-10T08:26:43;7.82;;;4.90;;
47103;SDS011;32853;52.164;5.400;2023-04-10T08:29:19;8.18;;;4.72;;
47103;SDS011;32853;52.164;5.400;2023-04-10T08:31:47;8.23;;;4.72;;
47103;SDS011;32853;52.164;5.400;2023-04-10T08:34:17;8.82;;;5.22;;
47103;SDS011;32853;52.164;5.400;2023-04-10T08:36:53;7.55;;;4.47;;
47103;SDS011;32853;52.164;5.400;2023-04-10T08:39:21;9.95;;;5.53;;
47103;SDS011;32853;52.164;5.400;2023-04-10T08:41:50;7.22;;;4.65;;
47103;SDS011;32853;52.164;5.400;2023-04-10T08:44:15;8.20;;;5.10;;
47103;SDS011;32853;52.164;5.400;2023-04-10T08:46:42;11.82;;;5.30;;
47103;SDS011;32853;52.164;5.400;2023-04-10T08:52:17;9.65;;;5.63;;
47103;SDS011;32853;52.164;5.400;2023-04-10T08:54:55;7.47;;;4.72;;
47103;SDS011;32853;52.164;5.400;2023-04-10T08:57:22;10.98;;;6.43;;
47103;SDS011;32853;52.164;5.400;2023-04-10T08:59:49;7.85;;;4.85;;
47103;SDS011;32853;52.164;5.400;2023-04-10T09:02:27;15.57;;;7.25;;
47103;SDS011;32853;52.164;5.400;2023-04-10T09:04:54;14.00;;;6.78;;
47103;SDS011;32853;52.164;5.400;2023-04-10T09:07:39;11.48;;;6.15;;
47103;SDS011;32853;52.164;5.400;2023-04-10T09:10:05;9.73;;;5.90;;
47103;SDS011;32853;52.164;5.400;2023-04-10T09:12:43;9.80;;;4.70;;
47103;SDS011;32853;52.164;5.400;2023-04-10T09:15:12;9.20;;;4.90;;
47103;SDS011;32853;52.164;5.400;2023-04-10T09:20:20;13.48;;;5.32;;
47103;SDS011;32853;52.164;5.400;2023-04-10T09:22:47;12.18;;;5.63;;
47103;SDS011;32853;52.164;5.400;2023-04-10T09:25:27;8.07;;;5.03;;
47103;SDS011;32853;52.164;5.400;2023-04-10T09:28:01;8.73;;;4.97;;
47103;SDS011;32853;52.164;5.400;2023-04-10T09:30:40;9.85;;;5.60;;
47103;SDS011;32853;52.164;5.400;2023-04-10T09:33:25;9.95;;;5.22;;
47103;SDS011;32853;52.164;5.400;2023-04-10T09:35:52;7.75;;;4.55;;
47103;SDS011;32853;52.164;5.400;2023-04-10T09:38:27;12.27;;;5.25;;
47103;SDS011;32853;52.164;5.400;2023-04-10T09:40:54;10.32;;;5.25;;
47103;SDS011;32853;52.164;5.400;2023-04-10T09:43:30;9.65;;;5.03;;
47103;SDS011;32853;52.164;5.400;2023-04-10T09:45:56;11.32;;;6.28;;
47103;SDS011;32853;52.164;5.400;2023-04-10T09:48:24;9.07;;;5.07;;
47103;SDS011;32853;52.164;5.400;2023-04-10T09:51:31;8.82;;;4.70;;
47103;SDS011;32853;52.164;5.400;2023-04-10T09:53:59;7.85;;;4.88;;
47103;SDS011;32853;52.164;5.400;2023-04-10T09:56:25;8.77;;;5.38;;
47103;SDS011;32853;52.164;5.400;2023-04-10T09:58:52;11.77;;;5.45;;
47103;SDS011;32853;52.164;5.400;2023-04-10T10:01:22;11.35;;;5.53;;
47103;SDS011;32853;52.164;5.400;2023-04-10T10:03:48;8.13;;;5.18;;
47103;SDS011;32853;52.164;5.400;2023-04-10T10:06:16;11.25;;;5.78;;
47103;SDS011;32853;52.164;5.400;2023-04-10T10:08:42;7.57;;;4.90;;
47103;SDS011;32853;52.164;5.400;2023-04-10T10:11:08;11.40;;;5.50;;
47103;SDS011;32853;52.164;5.400;2023-04-10T10:16:18;11.73;;;5.20;;
47103;SDS011;32853;52.164;5.400;2023-04-10T10:18:50;7.95;;;5.32;;
47103;SDS011;32853;52.164;5.400;2023-04-10T10:21:23;14.40;;;5.53;;
47103;SDS011;32853;52.164;5.400;2023-04-10T10:23:59;8.88;;;5.55;;
47103;SDS011;32853;52.164;5.400;2023-04-10T10:26:28;8.07;;;5.25;;
47103;SDS011;32853;52.164;5.400;2023-04-10T10:28:54;10.63;;;5.43;;
47103;SDS011;32853;52.164;5.400;2023-04-10T10:31:21;9.75;;;5.47;;
47103;SDS011;32853;52.164;5.400;2023-04-10T10:33:57;9.38;;;5.05;;
47103;SDS011;32853;52.164;5.400;2023-04-10T10:36:39;10.23;;;4.90;;
47103;SDS011;32853;52.164;5.400;2023-04-10T10:47:32;8.00;;;4.55;;
47103;SDS011;32853;52.164;5.400;2023-04-10T10:50:04;6.47;;;4.20;;
47103;SDS011;32853;52.164;5.400;2023-04-10T10:52:46;10.60;;;5.28;;
47103;SDS011;32853;52.164;5.400;2023-04-10T10:55:35;6.75;;;4.28;;
47103;SDS011;32853;52.164;5.400;2023-04-10T10:58:01;8.98;;;4.85;;
47103;SDS011;32853;52.164;5.400;2023-04-10T11:05:50;7.43;;;4.35;;
47103;SDS011;32853;52.164;5.400;2023-04-10T11:19:07;7.60;;;4.40;;
47103;SDS011;32853;52.164;5.400;2023-04-10T11:27:40;7.75;;;4.80;;
47103;SDS011;32853;52.164;5.400;2023-04-10T11:32:58;7.60;;;3.85;;
47103;SDS011;32853;52.164;5.400;2023-04-10T11:35:25;7.15;;;4.75;;
47103;SDS011;32853;52.164;5.400;2023-04-10T11:43:53;6.88;;;4.57;;
47103;SDS011;32853;52.164;5.400;2023-04-10T11:46:18;7.70;;;4.10;;
47103;SDS011;32853;52.164;5.400;2023-04-10T11:48:44;6.82;;;3.72;;
47103;SDS011;32853;52.164;5.400;2023-04-10T11:51:18;8.18;;;3.78;;
47103;SDS011;32853;52.164;5.400;2023-04-10T11:53:43;7.10;;;4.03;;
47103;SDS011;32853;52.164;5.400;2023-04-10T11:56:22;6.18;;;3.90;;
47103;SDS011;32853;52.164;5.400;2023-04-10T11:58:53;6.47;;;3.95;;
47103;SDS011;32853;52.164;5.400;2023-04-10T12:01:22;7.47;;;4.23;;
47103;SDS011;32853;52.164;5.400;2023-04-10T12:03:47;5.97;;;4.30;;
47103;SDS011;32853;52.164;5.400;2023-04-10T12:06:14;7.18;;;4.63;;
47103;SDS011;32853;52.164;5.400;2023-04-10T12:08:47;6.53;;;4.00;;
47103;SDS011;32853;52.164;5.400;2023-04-10T12:11:34;5.53;;;2.88;;
47103;SDS011;32853;52.164;5.400;2023-04-10T12:17:01;5.70;;;3.67;;
47103;SDS011;32853;52.164;5.400;2023-04-10T12:19:27;7.25;;;3.88;;
47103;SDS011;32853;52.164;5.400;2023-04-10T12:21:54;6.55;;;3.58;;
47103;SDS011;32853;52.164;5.400;2023-04-10T12:32:53;3.88;;;2.72;;
47103;SDS011;32853;52.164;5.400;2023-04-10T12:35:19;3.95;;;2.63;;
47103;SDS011;32853;52.164;5.400;2023-04-10T12:37:45;4.65;;;2.47;;
47103;SDS011;32853;52.164;5.400;2023-04-10T12:40:20;5.43;;;2.88;;
47103;SDS011;32853;52.164;5.400;2023-04-10T12:42:45;3.85;;;2.53;;
47103;SDS011;32853;52.164;5.400;2023-04-10T12:45:11;3.85;;;2.53;;
47103;SDS011;32853;52.164;5.400;2023-04-10T12:47:45;4.05;;;2.60;;
47103;SDS011;32853;52.164;5.400;2023-04-10T12:50:18;2.97;;;2.00;;
47103;SDS011;32853;52.164;5.400;2023-04-10T12:53:06;4.53;;;2.63;;
47103;SDS011;32853;52.164;5.400;2023-04-10T12:55:33;3.55;;;2.17;;
47103;SDS011;32853;52.164;5.400;2023-04-10T12:58:03;6.65;;;2.70;;
47103;SDS011;32853;52.164;5.400;2023-04-10T13:00:44;5.32;;;2.40;;
47103;SDS011;32853;52.164;5.400;2023-04-10T13:03:15;4.22;;;2.00;;
47103;SDS011;32853;52.164;5.400;2023-04-10T13:05:41;2.60;;;1.83;;
47103;SDS011;32853;52.164;5.400;2023-04-10T13:08:27;3.20;;;1.65;;
47103;SDS011;32853;52.164;5.400;2023-04-10T13:11:16;5.55;;;1.98;;
47103;SDS011;32853;52.164;5.400;2023-04-10T13:13:59;3.53;;;1.90;;
47103;SDS011;32853;52.164;5.400;2023-04-10T13:16:34;8.85;;;1.88;;
47103;SDS011;32853;52.164;5.400;2023-04-10T13:19:00;4.05;;;2.38;;
47103;SDS011;32853;52.164;5.400;2023-04-10T13:21:28;4.18;;;1.55;;
47103;SDS011;32853;52.164;5.400;2023-04-10T13:23:55;3.03;;;1.77;;
47103;SDS011;32853;52.164;5.400;2023-04-10T13:26:21;3.00;;;1.83;;
47103;SDS011;32853;52.164;5.400;2023-04-10T13:32:17;4.13;;;1.88;;
47103;SDS011;32853;52.164;5.400;2023-04-10T13:37:12;6.05;;;2.30;;
47103;SDS011;32853;52.164;5.400;2023-04-10T13:39:41;5.00;;;2.00;;
47103;SDS011;32853;52.164;5.400;2023-04-10T13:42:08;3.97;;;2.20;;
47103;SDS011;32853;52.164;5.400;2023-04-10T13:44:34;4.22;;;1.92;;
47103;SDS011;32853;52.164;5.400;2023-04-10T13:46:59;3.67;;;2.00;;
47103;SDS011;32853;52.164;5.400;2023-04-10T13:49:26;3.72;;;1.42;;
47103;SDS011;32853;52.164;5.400;2023-04-10T13:52:00;4.18;;;1.58;;
47103;SDS011;32853;52.164;5.400;2023-04-10T13:54:26;3.17;;;2.22;;
47103;SDS011;32853;52.164;5.400;2023-04-10T14:02:23;3.13;;;2.15;;
47103;SDS011;32853;52.164;5.400;2023-04-10T14:04:48;2.92;;;1.83;;
47103;SDS011;32853;52.164;5.400;2023-04-10T14:07:24;4.22;;;2.22;;
47103;SDS011;32853;52.164;5.400;2023-04-10T14:10:07;4.28;;;1.95;;
47103;SDS011;32853;52.164;5.400;2023-04-10T14:12:32;3.70;;;1.83;;
47103;SDS011;32853;52.164;5.400;2023-04-10T14:15:07;5.13;;;2.17;;
47103;SDS011;32853;52.164;5.400;2023-04-10T14:17:36;4.50;;;2.72;;
47103;SDS011;32853;52.164;5.400;2023-04-10T14:20:02;4.15;;;1.80;;
47103;SDS011;32853;52.164;5.400;2023-04-10T14:22:44;6.47;;;4.07;;
47103;SDS011;32853;52.164;5.400;2023-04-10T14:25:20;3.25;;;2.35;;
47103;SDS011;32853;52.164;5.400;2023-04-10T14:27:45;6.47;;;2.20;;
47103;SDS011;32853;52.164;5.400;2023-04-10T14:30:11;4.65;;;2.28;;
47103;SDS011;32853;52.164;5.400;2023-04-10T14:32:41;3.42;;;2.10;;
47103;SDS011;32853;52.164;5.400;2023-04-10T14:35:15;3.42;;;2.28;;
47103;SDS011;32853;52.164;5.400;2023-04-10T14:37:44;2.97;;;1.88;;
47103;SDS011;32853;52.164;5.400;2023-04-10T14:40:34;3.97;;;2.00;;
47103;SDS011;32853;52.164;5.400;2023-04-10T14:46:36;3.85;;;2.40;;
47103;SDS011;32853;52.164;5.400;2023-04-10T14:49:58;7.57;;;2.50;;
47103;SDS011;32853;52.164;5.400;2023-04-10T14:52:36;6.75;;;3.67;;
47103;SDS011;32853;52.164;5.400;2023-04-10T14:58:44;4.47;;;2.40;;
47103;SDS011;32853;52.164;5.400;2023-04-10T15:01:21;4.90;;;2.63;;
47103;SDS011;32853;52.164;5.400;2023-04-10T15:03:46;4.57;;;2.50;;
47103;SDS011;32853;52.164;5.400;2023-04-10T15:06:15;3.92;;;2.53;;
47103;SDS011;32853;52.164;5.400;2023-04-10T15:08:41;6.18;;;2.35;;
47103;SDS011;32853;52.164;5.400;2023-04-10T15:11:09;5.35;;;2.90;;
47103;SDS011;32853;52.164;5.400;2023-04-10T15:13:34;4.90;;;3.15;;
47103;SDS011;32853;52.164;5.400;2023-04-10T15:16:04;5.90;;;3.03;;
47103;SDS011;32853;52.164;5.400;2023-04-10T15:18:31;5.15;;;2.63;;
47103;SDS011;32853;52.164;5.400;2023-04-10T15:20:57;3.88;;;2.85;;
47103;SDS011;32853;52.164;5.400;2023-04-10T15:26:13;4.47;;;3.15;;
47103;SDS011;32853;52.164;5.400;2023-04-10T15:29:12;4.97;;;2.92;;
47103;SDS011;32853;52.164;5.400;2023-04-10T15:31:41;5.57;;;3.42;;
47103;SDS011;32853;52.164;5.400;2023-04-10T15:36:53;5.78;;;2.85;;
47103;SDS011;32853;52.164;5.400;2023-04-10T15:39:18;5.88;;;3.10;;
47103;SDS011;32853;52.164;5.400;2023-04-10T15:41:47;7.95;;;3.10;;
47103;SDS011;32853;52.164;5.400;2023-04-10T15:44:14;4.97;;;2.75;;
47103;SDS011;32853;52.164;5.400;2023-04-10T15:46:41;3.00;;;1.92;;
47103;SDS011;32853;52.164;5.400;2023-04-10T15:49:08;4.82;;;2.55;;
47103;SDS011;32853;52.164;5.400;2023-04-10T15:51:55;5.68;;;2.90;;
47103;SDS011;32853;52.164;5.400;2023-04-10T15:54:21;3.78;;;2.42;;
47103;SDS011;32853;52.164;5.400;2023-04-10T15:56:55;4.88;;;3.92;;
47103;SDS011;32853;52.164;5.400;2023-04-10T16:02:48;4.75;;;3.00;;
47103;SDS011;32853;52.164;5.400;2023-04-10T16:05:14;5.63;;;3.08;;
47103;SDS011;32853;52.164;5.400;2023-04-10T16:07:43;4.57;;;2.60;;
47103;SDS011;32853;52.164;5.400;2023-04-10T16:10:09;6.55;;;3.97;;
47103;SDS011;32853;52.164;5.400;2023-04-10T16:12:35;5.97;;;3.78;;
47103;SDS011;32853;52.164;5.400;2023-04-10T16:15:03;5.55;;;3.03;;
47103;SDS011;32853;52.164;5.400;2023-04-10T16:17:29;4.75;;;3.05;;
47103;SDS011;32853;52.164;5.400;2023-04-10T16:19:58;6.13;;;2.15;;
47103;SDS011;32853;52.164;5.400;2023-04-10T16:22:24;5.13;;;3.05;;
47103;SDS011;32853;52.164;5.400;2023-04-10T16:24:57;7.25;;;4.28;;
47103;SDS011;32853;52.164;5.400;2023-04-10T16:27:23;6.90;;;3.35;;
47103;SDS011;32853;52.164;5.400;2023-04-10T16:29:49;6.93;;;4.03;;
47103;SDS011;32853;52.164;5.400;2023-04-10T16:32:17;5.97;;;2.95;;
47103;SDS011;32853;52.164;5.400;2023-04-10T16:37:37;10.18;;;4.10;;
47103;SDS011;32853;52.164;5.400;2023-04-10T16:42:44;9.30;;;4.65;;
47103;SDS011;32853;52.164;5.400;2023-04-10T16:45:09;7.72;;;3.83;;
47103;SDS011;32853;52.164;5.400;2023-04-10T16:47:38;6.13;;;3.75;;
47103;SDS011;32853;52.164;5.400;2023-04-10T16:50:04;8.10;;;4.40;;
47103;SDS011;32853;52.164;5.400;2023-04-10T16:52:30;6.03;;;3.78;;
47103;SDS011;32853;52.164;5.400;2023-04-10T16:54:56;6.47;;;3.97;;
47103;SDS011;32853;52.164;5.400;2023-04-10T16:57:24;5.65;;;3.70;;
47103;SDS011;32853;52.164;5.400;2023-04-10T16:59:53;8.75;;;3.80;;
47103;SDS011;32853;52.164;5.400;2023-04-10T17:02:22;10.13;;;4.80;;
47103;SDS011;32853;52.164;5.400;2023-04-10T17:04:56;5.97;;;3.40;;
47103;SDS011;32853;52.164;5.400;2023-04-10T17:07:22;7.10;;;3.25;;
47103;SDS011;32853;52.164;5.400;2023-04-10T17:10:05;6.00;;;4.00;;
47103;SDS011;32853;52.164;5.400;2023-04-10T17:12:34;7.07;;;3.65;;
47103;SDS011;32853;52.164;5.400;2023-04-10T17:14:59;7.20;;;3.50;;
47103;SDS011;32853;52.164;5.400;2023-04-10T17:17:27;6.32;;;3.10;;
47103;SDS011;32853;52.164;5.400;2023-04-10T17:19:54;5.53;;;3.35;;
47103;SDS011;32853;52.164;5.400;2023-04-10T17:22:23;5.05;;;3.58;;
47103;SDS011;32853;52.164;5.400;2023-04-10T17:25:04;6.03;;;3.72;;
47103;SDS011;32853;52.164;5.400;2023-04-10T17:27:37;5.88;;;2.90;;
47103;SDS011;32853;52.164;5.400;2023-04-10T17:32:57;9.43;;;4.00;;
47103;SDS011;32853;52.164;5.400;2023-04-10T17:35:23;7.75;;;4.15;;
47103;SDS011;32853;52.164;5.400;2023-04-10T17:37:49;11.98;;;4.03;;
47103;SDS011;32853;52.164;5.400;2023-04-10T17:40:15;8.45;;;4.43;;
47103;SDS011;32853;52.164;5.400;2023-04-10T17:42:40;8.70;;;3.22;;